PWSweather.com
Personal Weather Stations
Station Observations
GRD01
Warsaw, LesznoPL 05-084

WarsawLesznoPL 05-084

Lat: 52.257404, Lon: 20.564847

Elevation: 298

Station Type: WH3080

http://pogoda.kampinos.waw.pl

High Low Average
Temperature 49.5°F9.7°C 39.0°F3.9°C 46.1°F7.8°C
Dew Point 46.1°F7.8°C 34.5°F1.4°C 42.7°F5.9°C
Winds 10.7 mph 17.2 kmh 2.2 mph 3.5 kmh 6.0 mph E9.7 kmh E
Wind Gusts 16.8 mph27.0 kmh 6.0 mph9.7 kmh 11.0 mph17.7 kmh
Humidity 92% 83% 88%
Pressure 30.04 in1017.3 mb 29.95 in1014.2 mb -
Precipitation 0.01 in0.3 mm - -
Hour Temp Dew Point Humidity Winds Wind Gusts Pressure Precip Precip Rate Daily Precip Total
12:00 AM 39.2°F4.0°C 34.5°F1.4°C 83% 3.8 mph NNE6.1 kmh NNE 6.0 mph9.7 kmh 30.02 in1016.6 mb 0.00 in0.0 mm 0.00 in0.0 mm 0.00 in0.0 mm
12:14 AM 39.2°F4.0°C 34.8°F1.6°C 84% 3.8 mph NNE6.1 kmh NNE 8.3 mph13.4 kmh 30.03 in1016.9 mb 0.00 in0.0 mm 0.00 in0.0 mm 0.00 in0.0 mm
12:30 AM 39.0°F3.9°C 34.6°F1.4°C 84% 3.8 mph NE6.1 kmh NE 8.3 mph13.4 kmh 30.03 in1016.9 mb 0.00 in0.0 mm 0.00 in0.0 mm 0.00 in0.0 mm
12:45 AM 39.2°F4.0°C 34.8°F1.6°C 84% 7.6 mph NE12.2 kmh NE 9.2 mph14.8 kmh 30.04 in1017.3 mb 0.00 in0.0 mm 0.00 in0.0 mm 0.00 in0.0 mm
01:00 AM 39.2°F4.0°C 34.8°F1.6°C 84% 5.4 mph NE8.7 kmh NE 8.3 mph13.4 kmh 30.03 in1016.9 mb 0.00 in0.0 mm 0.00 in0.0 mm 0.00 in0.0 mm
01:15 AM 39.4°F4.1°C 35.2°F1.8°C 85% 5.4 mph NE8.7 kmh NE 8.3 mph13.4 kmh 30.03 in1016.9 mb 0.00 in0.0 mm 0.00 in0.0 mm 0.00 in0.0 mm
01:30 AM 39.4°F4.1°C 35.2°F1.8°C 85% 4.5 mph NE7.2 kmh NE 9.2 mph14.8 kmh 30.03 in1016.9 mb 0.00 in0.0 mm 0.00 in0.0 mm 0.00 in0.0 mm
01:44 AM 39.6°F4.2°C 35.7°F2.1°C 86% 3.8 mph NE6.1 kmh NE 7.6 mph12.2 kmh 30.03 in1016.9 mb 0.00 in0.0 mm 0.00 in0.0 mm 0.00 in0.0 mm
02:00 AM 39.7°F4.3°C 35.9°F2.2°C 86% 3.8 mph NNE6.1 kmh NNE 7.6 mph12.2 kmh 30.02 in1016.6 mb 0.00 in0.0 mm 0.00 in0.0 mm 0.00 in0.0 mm
02:14 AM 39.7°F4.3°C 35.9°F2.2°C 86% 2.2 mph NE3.5 kmh NE 6.9 mph11.1 kmh 30.02 in1016.6 mb 0.00 in0.0 mm 0.00 in0.0 mm 0.00 in0.0 mm
02:30 AM 39.9°F4.4°C 36.4°F2.4°C 87% 3.8 mph NE6.1 kmh NE 7.6 mph12.2 kmh 30.01 in1016.3 mb 0.00 in0.0 mm 0.00 in0.0 mm 0.00 in0.0 mm
02:44 AM 40.1°F4.5°C 36.5°F2.5°C 87% 3.1 mph NE5.0 kmh NE 7.6 mph12.2 kmh 30.01 in1016.3 mb 0.00 in0.0 mm 0.00 in0.0 mm 0.00 in0.0 mm
03:00 AM 40.3°F4.6°C 37.0°F2.8°C 88% 5.4 mph NE8.7 kmh NE 7.6 mph12.2 kmh 30.01 in1016.3 mb 0.00 in0.0 mm 0.00 in0.0 mm 0.00 in0.0 mm
03:14 AM 40.6°F4.8°C 37.4°F3.0°C 88% 6.0 mph NE9.7 kmh NE 10.7 mph17.2 kmh 30.00 in1015.9 mb 0.00 in0.0 mm 0.00 in0.0 mm 0.00 in0.0 mm
03:30 AM 40.8°F4.9°C 37.8°F3.2°C 89% 3.1 mph NE5.0 kmh NE 7.6 mph12.2 kmh 30.01 in1016.3 mb 0.00 in0.0 mm 0.00 in0.0 mm 0.00 in0.0 mm
03:44 AM 41.2°F5.1°C 38.2°F3.4°C 89% 4.5 mph NE7.2 kmh NE 8.3 mph13.4 kmh 30.00 in1015.9 mb 0.00 in0.0 mm 0.00 in0.0 mm 0.00 in0.0 mm
04:00 AM 41.4°F5.2°C 38.4°F3.6°C 89% 3.8 mph NE6.1 kmh NE 6.9 mph11.1 kmh 30.00 in1015.9 mb 0.00 in0.0 mm 0.00 in0.0 mm 0.00 in0.0 mm
04:14 AM 41.5°F5.3°C 38.8°F3.8°C 90% 5.4 mph NE8.7 kmh NE 7.6 mph12.2 kmh 30.00 in1015.9 mb 0.00 in0.0 mm 0.00 in0.0 mm 0.00 in0.0 mm
04:30 AM 41.7°F5.4°C 39.0°F3.9°C 90% 3.8 mph NE6.1 kmh NE 8.3 mph13.4 kmh 30.00 in1015.9 mb 0.00 in0.0 mm 0.00 in0.0 mm 0.00 in0.0 mm
04:44 AM 41.9°F5.5°C 39.2°F4.0°C 90% 4.5 mph NE7.2 kmh NE 7.6 mph12.2 kmh 30.00 in1015.9 mb 0.00 in0.0 mm 0.00 in0.0 mm 0.00 in0.0 mm
05:00 AM 42.1°F5.6°C 39.4°F4.1°C 90% 4.5 mph NE7.2 kmh NE 7.6 mph12.2 kmh 29.99 in1015.6 mb 0.00 in0.0 mm 0.00 in0.0 mm 0.00 in0.0 mm
05:14 AM 42.3°F5.7°C 39.5°F4.2°C 90% 3.1 mph NE5.0 kmh NE 6.9 mph11.1 kmh 30.00 in1015.9 mb 0.00 in0.0 mm 0.00 in0.0 mm 0.00 in0.0 mm
05:30 AM 42.4°F5.8°C 39.7°F4.3°C 90% 3.8 mph NNE6.1 kmh NNE 6.9 mph11.1 kmh 29.99 in1015.6 mb 0.00 in0.0 mm 0.00 in0.0 mm 0.00 in0.0 mm
05:44 AM 42.6°F5.9°C 39.9°F4.4°C 90% 4.5 mph NE7.2 kmh NE 7.6 mph12.2 kmh 29.99 in1015.6 mb 0.00 in0.0 mm 0.00 in0.0 mm 0.00 in0.0 mm
06:00 AM 42.8°F6.0°C 40.4°F4.7°C 91% 3.8 mph NE6.1 kmh NE 9.8 mph15.8 kmh 29.98 in1015.2 mb 0.01 in0.3 mm 0.01 in0.3 mm 0.01 in0.3 mm
06:14 AM 43.0°F6.1°C 40.5°F4.7°C 91% 6.0 mph NE9.7 kmh NE 9.2 mph14.8 kmh 29.99 in1015.6 mb 0.01 in0.3 mm 0.00 in0.0 mm 0.01 in0.3 mm
06:30 AM 43.3°F6.3°C 40.9°F4.9°C 91% 3.8 mph NE6.1 kmh NE 6.0 mph9.7 kmh 29.99 in1015.6 mb 0.01 in0.3 mm 0.00 in0.0 mm 0.01 in0.3 mm
06:44 AM 43.7°F6.5°C 41.2°F5.1°C 91% 3.8 mph NE6.1 kmh NE 8.3 mph13.4 kmh 29.99 in1015.6 mb 0.01 in0.3 mm 0.00 in0.0 mm 0.01 in0.3 mm
07:00 AM 43.9°F6.6°C 41.4°F5.2°C 91% 3.8 mph NE6.1 kmh NE 6.9 mph11.1 kmh 29.99 in1015.6 mb 0.00 in0.0 mm 0.00 in0.0 mm 0.01 in0.3 mm
07:14 AM 44.2°F6.8°C 41.8°F5.4°C 91% 3.1 mph NE5.0 kmh NE 7.6 mph12.2 kmh 29.99 in1015.6 mb 0.00 in0.0 mm 0.00 in0.0 mm 0.01 in0.3 mm
07:30 AM 44.6°F7.0°C 42.4°F5.8°C 92% 3.8 mph NE6.1 kmh NE 9.2 mph14.8 kmh 29.98 in1015.2 mb 0.00 in0.0 mm 0.00 in0.0 mm 0.01 in0.3 mm
07:44 AM 45.0°F7.2°C 42.8°F6.0°C 92% 5.4 mph NE8.7 kmh NE 11.4 mph18.3 kmh 29.98 in1015.2 mb 0.00 in0.0 mm 0.00 in0.0 mm 0.01 in0.3 mm
08:00 AM 45.3°F7.4°C 43.1°F6.2°C 92% 4.5 mph NE7.2 kmh NE 9.8 mph15.8 kmh 29.98 in1015.2 mb 0.00 in0.0 mm 0.00 in0.0 mm 0.01 in0.3 mm
08:14 AM 45.9°F7.7°C 42.5°F5.8°C 88% 4.5 mph NE7.2 kmh NE 9.2 mph14.8 kmh 29.98 in1015.2 mb 0.00 in0.0 mm 0.00 in0.0 mm 0.01 in0.3 mm
08:30 AM 46.4°F8.0°C 43.3°F6.3°C 89% 5.4 mph ENE8.7 kmh ENE 12.1 mph19.5 kmh 29.99 in1015.6 mb 0.00 in0.0 mm 0.00 in0.0 mm 0.01 in0.3 mm
08:44 AM 46.8°F8.2°C 43.7°F6.5°C 89% 6.0 mph NE9.7 kmh NE 7.6 mph12.2 kmh 29.99 in1015.6 mb 0.00 in0.0 mm 0.00 in0.0 mm 0.01 in0.3 mm
09:00 AM 47.3°F8.5°C 44.2°F6.8°C 89% 3.8 mph ENE6.1 kmh ENE 6.9 mph11.1 kmh 29.98 in1015.2 mb 0.00 in0.0 mm 0.00 in0.0 mm 0.01 in0.3 mm
09:14 AM 47.7°F8.7°C 44.9°F7.2°C 90% 2.2 mph NE3.5 kmh NE 9.2 mph14.8 kmh 29.99 in1015.6 mb 0.00 in0.0 mm 0.00 in0.0 mm 0.01 in0.3 mm
09:30 AM 47.8°F8.8°C 45.0°F7.2°C 90% 3.1 mph NE5.0 kmh NE 8.3 mph13.4 kmh 29.98 in1015.2 mb 0.00 in0.0 mm 0.00 in0.0 mm 0.01 in0.3 mm
09:44 AM 48.0°F8.9°C 45.2°F7.3°C 90% 4.5 mph E7.2 kmh E 8.3 mph13.4 kmh 29.99 in1015.6 mb 0.00 in0.0 mm 0.00 in0.0 mm 0.01 in0.3 mm
10:00 AM 48.2°F9.0°C 45.4°F7.4°C 90% 7.6 mph E12.2 kmh E 9.2 mph14.8 kmh 29.99 in1015.6 mb 0.00 in0.0 mm 0.00 in0.0 mm 0.01 in0.3 mm
10:14 AM 48.4°F9.1°C 45.6°F7.6°C 90% 6.0 mph ESE9.7 kmh ESE 12.1 mph19.5 kmh 29.99 in1015.6 mb 0.00 in0.0 mm 0.00 in0.0 mm 0.01 in0.3 mm
10:30 AM 48.4°F9.1°C 45.6°F7.6°C 90% 5.4 mph SE8.7 kmh SE 9.2 mph14.8 kmh 30.00 in1015.9 mb 0.00 in0.0 mm 0.00 in0.0 mm 0.01 in0.3 mm
10:44 AM 48.4°F9.1°C 45.6°F7.6°C 90% 10.7 mph E17.2 kmh E 15.2 mph24.5 kmh 30.00 in1015.9 mb 0.00 in0.0 mm 0.00 in0.0 mm 0.01 in0.3 mm
11:00 AM 48.4°F9.1°C 45.6°F7.6°C 90% 8.3 mph E13.4 kmh E 15.2 mph24.5 kmh 29.99 in1015.6 mb 0.00 in0.0 mm 0.00 in0.0 mm 0.01 in0.3 mm
11:14 AM 48.6°F9.2°C 45.8°F7.7°C 90% 7.6 mph ESE12.2 kmh ESE 13.6 mph21.9 kmh 29.98 in1015.2 mb 0.00 in0.0 mm 0.00 in0.0 mm 0.01 in0.3 mm
11:30 AM 48.6°F9.2°C 45.8°F7.7°C 90% 7.6 mph E12.2 kmh E 13.0 mph20.9 kmh 29.98 in1015.2 mb 0.00 in0.0 mm 0.00 in0.0 mm 0.01 in0.3 mm
11:44 AM 48.6°F9.2°C 45.8°F7.7°C 90% 7.6 mph ESE12.2 kmh ESE 11.4 mph18.3 kmh 29.98 in1015.2 mb 0.00 in0.0 mm 0.00 in0.0 mm 0.01 in0.3 mm
12:00 PM 48.7°F9.3°C 45.9°F7.7°C 90% 5.4 mph E8.7 kmh E 15.9 mph25.6 kmh 29.98 in1015.2 mb 0.00 in0.0 mm 0.00 in0.0 mm 0.01 in0.3 mm
12:14 PM 48.7°F9.3°C 45.9°F7.7°C 90% 9.8 mph SE15.8 kmh SE 11.4 mph18.3 kmh 29.97 in1014.9 mb 0.00 in0.0 mm 0.00 in0.0 mm 0.01 in0.3 mm
12:29 PM 48.7°F9.3°C 45.9°F7.7°C 90% 6.0 mph ESE9.7 kmh ESE 15.2 mph24.5 kmh 29.97 in1014.9 mb 0.00 in0.0 mm 0.00 in0.0 mm 0.01 in0.3 mm
12:44 PM 48.7°F9.3°C 45.9°F7.7°C 90% 9.2 mph SE14.8 kmh SE 13.6 mph21.9 kmh 29.97 in1014.9 mb 0.00 in0.0 mm 0.00 in0.0 mm 0.01 in0.3 mm
01:00 PM 48.9°F9.4°C 46.1°F7.8°C 90% 7.6 mph SE12.2 kmh SE 12.1 mph19.5 kmh 29.97 in1014.9 mb 0.00 in0.0 mm 0.00 in0.0 mm 0.01 in0.3 mm
01:14 PM 48.7°F9.3°C 45.9°F7.7°C 90% 9.8 mph ESE15.8 kmh ESE 15.2 mph24.5 kmh 29.96 in1014.6 mb 0.00 in0.0 mm 0.00 in0.0 mm 0.01 in0.3 mm
01:30 PM 48.7°F9.3°C 45.9°F7.7°C 90% 4.5 mph E7.2 kmh E 14.5 mph23.3 kmh 29.96 in1014.6 mb 0.00 in0.0 mm 0.00 in0.0 mm 0.01 in0.3 mm
01:44 PM 48.7°F9.3°C 45.6°F7.6°C 89% 9.8 mph ESE15.8 kmh ESE 14.5 mph23.3 kmh 29.97 in1014.9 mb 0.00 in0.0 mm 0.00 in0.0 mm 0.01 in0.3 mm
02:00 PM 48.6°F9.2°C 45.5°F7.5°C 89% 6.0 mph ESE9.7 kmh ESE 16.8 mph27.0 kmh 29.96 in1014.6 mb 0.00 in0.0 mm 0.00 in0.0 mm 0.01 in0.3 mm
02:14 PM 48.6°F9.2°C 45.5°F7.5°C 89% 8.3 mph E13.4 kmh E 12.1 mph19.5 kmh 29.96 in1014.6 mb 0.00 in0.0 mm 0.00 in0.0 mm 0.01 in0.3 mm
02:30 PM 48.6°F9.2°C 45.5°F7.5°C 89% 6.9 mph ESE11.1 kmh ESE 13.0 mph20.9 kmh 29.96 in1014.6 mb 0.00 in0.0 mm 0.00 in0.0 mm 0.01 in0.3 mm
02:44 PM 48.6°F9.2°C 45.2°F7.3°C 88% 10.7 mph E17.2 kmh E 13.6 mph21.9 kmh 29.96 in1014.6 mb 0.00 in0.0 mm 0.00 in0.0 mm 0.01 in0.3 mm
03:00 PM 48.6°F9.2°C 45.2°F7.3°C 88% 5.4 mph E8.7 kmh E 13.6 mph21.9 kmh 29.96 in1014.6 mb 0.00 in0.0 mm 0.00 in0.0 mm 0.01 in0.3 mm
03:14 PM 48.4°F9.1°C 44.7°F7.1°C 87% 6.0 mph ESE9.7 kmh ESE 13.0 mph20.9 kmh 29.96 in1014.6 mb 0.00 in0.0 mm 0.00 in0.0 mm 0.01 in0.3 mm
03:29 PM 48.4°F9.1°C 44.7°F7.1°C 87% 6.9 mph SE11.1 kmh SE 13.0 mph20.9 kmh 29.98 in1015.2 mb 0.00 in0.0 mm 0.00 in0.0 mm 0.01 in0.3 mm
03:44 PM 48.4°F9.1°C 44.7°F7.1°C 87% 6.9 mph ESE11.1 kmh ESE 12.1 mph19.5 kmh 29.97 in1014.9 mb 0.00 in0.0 mm 0.00 in0.0 mm 0.01 in0.3 mm
04:00 PM 48.4°F9.1°C 44.4°F6.9°C 86% 8.3 mph SE13.4 kmh SE 14.5 mph23.3 kmh 29.97 in1014.9 mb 0.00 in0.0 mm 0.00 in0.0 mm 0.01 in0.3 mm
04:14 PM 48.6°F9.2°C 44.6°F7.0°C 86% 7.6 mph ESE12.2 kmh ESE 14.5 mph23.3 kmh 29.98 in1015.2 mb 0.00 in0.0 mm 0.00 in0.0 mm 0.01 in0.3 mm
04:29 PM 48.6°F9.2°C 44.6°F7.0°C 86% 7.6 mph ESE12.2 kmh ESE 9.8 mph15.8 kmh 29.97 in1014.9 mb 0.00 in0.0 mm 0.00 in0.0 mm 0.01 in0.3 mm
04:44 PM 48.6°F9.2°C 44.3°F6.8°C 85% 9.2 mph SE14.8 kmh SE 13.0 mph20.9 kmh 29.97 in1014.9 mb 0.00 in0.0 mm 0.00 in0.0 mm 0.01 in0.3 mm
05:00 PM 48.6°F9.2°C 44.3°F6.8°C 85% 6.0 mph ESE9.7 kmh ESE 14.5 mph23.3 kmh 29.97 in1014.9 mb 0.00 in0.0 mm 0.00 in0.0 mm 0.01 in0.3 mm
05:14 PM 48.6°F9.2°C 44.3°F6.8°C 85% 6.9 mph SE11.1 kmh SE 16.8 mph27.0 kmh 29.98 in1015.2 mb 0.00 in0.0 mm 0.00 in0.0 mm 0.01 in0.3 mm
05:29 PM 48.6°F9.2°C 44.3°F6.8°C 85% 4.5 mph ESE7.2 kmh ESE 13.0 mph20.9 kmh 29.97 in1014.9 mb 0.00 in0.0 mm 0.00 in0.0 mm 0.01 in0.3 mm
05:44 PM 48.6°F9.2°C 44.3°F6.8°C 85% 5.4 mph E8.7 kmh E 13.0 mph20.9 kmh 29.97 in1014.9 mb 0.00 in0.0 mm 0.00 in0.0 mm 0.01 in0.3 mm
06:00 PM 48.4°F9.1°C 44.1°F6.7°C 85% 6.0 mph SE9.7 kmh SE 10.7 mph17.2 kmh 29.98 in1015.2 mb 0.00 in0.0 mm 0.00 in0.0 mm 0.01 in0.3 mm
06:14 PM 48.6°F9.2°C 44.3°F6.8°C 85% 6.0 mph SE9.7 kmh SE 13.0 mph20.9 kmh 29.97 in1014.9 mb 0.00 in0.0 mm 0.00 in0.0 mm 0.01 in0.3 mm
06:30 PM 48.6°F9.2°C 44.3°F6.8°C 85% 8.3 mph SE13.4 kmh SE 12.1 mph19.5 kmh 29.97 in1014.9 mb 0.00 in0.0 mm 0.00 in0.0 mm 0.01 in0.3 mm
06:45 PM 48.6°F9.2°C 44.3°F6.8°C 85% 4.5 mph SE7.2 kmh SE 13.6 mph21.9 kmh 29.97 in1014.9 mb 0.00 in0.0 mm 0.00 in0.0 mm 0.01 in0.3 mm
07:00 PM 48.6°F9.2°C 44.3°F6.8°C 85% 8.3 mph ESE13.4 kmh ESE 12.1 mph19.5 kmh 29.96 in1014.6 mb 0.00 in0.0 mm 0.00 in0.0 mm 0.01 in0.3 mm
07:15 PM 48.6°F9.2°C 44.3°F6.8°C 85% 8.3 mph E13.4 kmh E 11.4 mph18.3 kmh 29.96 in1014.6 mb 0.00 in0.0 mm 0.00 in0.0 mm 0.01 in0.3 mm
07:29 PM 48.6°F9.2°C 44.3°F6.8°C 85% 10.7 mph ESE17.2 kmh ESE 13.0 mph20.9 kmh 29.96 in1014.6 mb 0.00 in0.0 mm 0.00 in0.0 mm 0.01 in0.3 mm
07:44 PM 48.6°F9.2°C 44.3°F6.8°C 85% 9.2 mph SE14.8 kmh SE 13.0 mph20.9 kmh 29.96 in1014.6 mb 0.00 in0.0 mm 0.00 in0.0 mm 0.01 in0.3 mm
08:00 PM 48.7°F9.3°C 44.4°F6.9°C 85% 8.3 mph SE13.4 kmh SE 12.1 mph19.5 kmh 29.96 in1014.6 mb 0.00 in0.0 mm 0.00 in0.0 mm 0.01 in0.3 mm
08:14 PM 48.7°F9.3°C 44.4°F6.9°C 85% 6.9 mph ESE11.1 kmh ESE 13.0 mph20.9 kmh 29.95 in1014.2 mb 0.00 in0.0 mm 0.00 in0.0 mm 0.01 in0.3 mm
08:29 PM 48.7°F9.3°C 44.4°F6.9°C 85% 6.0 mph SE9.7 kmh SE 13.6 mph21.9 kmh 29.96 in1014.6 mb 0.00 in0.0 mm 0.00 in0.0 mm 0.01 in0.3 mm
08:44 PM 48.9°F9.4°C 44.6°F7.0°C 85% 4.5 mph SE7.2 kmh SE 16.8 mph27.0 kmh 29.96 in1014.6 mb 0.00 in0.0 mm 0.00 in0.0 mm 0.01 in0.3 mm
09:00 PM 48.9°F9.4°C 44.6°F7.0°C 85% 6.9 mph SE11.1 kmh SE 10.7 mph17.2 kmh 29.96 in1014.6 mb 0.00 in0.0 mm 0.00 in0.0 mm 0.01 in0.3 mm
09:14 PM 48.9°F9.4°C 44.9°F7.2°C 86% 5.4 mph SSE8.7 kmh SSE 12.1 mph19.5 kmh 29.95 in1014.2 mb 0.00 in0.0 mm 0.00 in0.0 mm 0.01 in0.3 mm
09:30 PM 49.1°F9.5°C 45.1°F7.3°C 86% 4.5 mph SE7.2 kmh SE 9.2 mph14.8 kmh 29.97 in1014.9 mb 0.00 in0.0 mm 0.00 in0.0 mm 0.01 in0.3 mm
09:44 PM 49.1°F9.5°C 45.1°F7.3°C 86% 3.8 mph SE6.1 kmh SE 6.9 mph11.1 kmh 29.96 in1014.6 mb 0.00 in0.0 mm 0.00 in0.0 mm 0.01 in0.3 mm
09:59 PM 49.1°F9.5°C 45.1°F7.3°C 86% 7.6 mph SE12.2 kmh SE 9.2 mph14.8 kmh 29.96 in1014.6 mb 0.00 in0.0 mm 0.00 in0.0 mm 0.01 in0.3 mm
10:14 PM 49.1°F9.5°C 45.1°F7.3°C 86% 4.5 mph ESE7.2 kmh ESE 10.7 mph17.2 kmh 29.95 in1014.2 mb 0.00 in0.0 mm 0.00 in0.0 mm 0.01 in0.3 mm
10:29 PM 49.1°F9.5°C 45.1°F7.3°C 86% 6.0 mph SSE9.7 kmh SSE 9.2 mph14.8 kmh 29.96 in1014.6 mb 0.00 in0.0 mm 0.00 in0.0 mm 0.01 in0.3 mm
10:44 PM 49.1°F9.5°C 45.1°F7.3°C 86% 3.8 mph SE6.1 kmh SE 10.7 mph17.2 kmh 29.96 in1014.6 mb 0.00 in0.0 mm 0.00 in0.0 mm 0.01 in0.3 mm
11:00 PM 49.3°F9.6°C 45.6°F7.6°C 87% 3.1 mph SE5.0 kmh SE 13.0 mph20.9 kmh 29.95 in1014.2 mb 0.00 in0.0 mm 0.00 in0.0 mm 0.01 in0.3 mm
11:14 PM 49.3°F9.6°C 45.6°F7.6°C 87% 7.6 mph SSE12.2 kmh SSE 10.7 mph17.2 kmh 29.95 in1014.2 mb 0.00 in0.0 mm 0.00 in0.0 mm 0.01 in0.3 mm
11:30 PM 49.3°F9.6°C 45.6°F7.6°C 87% 5.4 mph SE8.7 kmh SE 9.2 mph14.8 kmh 29.95 in1014.2 mb 0.00 in0.0 mm 0.00 in0.0 mm 0.01 in0.3 mm
11:44 PM 49.5°F9.7°C 45.8°F7.7°C 87% 3.8 mph SE6.1 kmh SE 8.3 mph13.4 kmh 29.95 in1014.2 mb 0.00 in0.0 mm 0.00 in0.0 mm 0.01 in0.3 mm
11:59 PM 49.5°F9.7°C 45.8°F7.7°C 87% 6.9 mph ESE11.1 kmh ESE 9.8 mph15.8 kmh 29.95 in1014.2 mb 0.00 in0.0 mm 0.00 in0.0 mm 0.01 in0.3 mm